createdAt,value
2023-04-08T00:00:18.888Z,5.24
2023-04-08T00:05:53.729Z,5.29
2023-04-08T00:11:04.599Z,5.28
2023-04-08T00:16:12.634Z,5.24
2023-04-08T00:21:21.230Z,5.21
2023-04-08T00:26:27.418Z,5.22
2023-04-08T00:31:32.901Z,5.24
2023-04-08T00:36:38.523Z,5.25
2023-04-08T00:41:44.102Z,5.23
2023-04-08T00:46:49.998Z,5.20
2023-04-08T00:51:56.301Z,5.20
2023-04-08T00:57:01.945Z,5.23
2023-04-08T01:02:15.741Z,5.26
2023-04-08T01:07:26.230Z,5.23
2023-04-08T01:12:39.976Z,5.16
2023-04-08T01:17:47.176Z,5.03
2023-04-08T01:23:09.811Z,4.89
2023-04-08T01:28:19.399Z,4.80
2023-04-08T01:33:27.511Z,4.71
2023-04-08T01:38:39.487Z,4.56
2023-04-08T01:43:46.321Z,4.39
2023-04-08T01:48:52.899Z,4.19
2023-04-08T01:53:59.028Z,3.92
2023-04-08T01:59:10.680Z,3.68
2023-04-08T02:04:16.303Z,3.52
2023-04-08T02:09:25.169Z,3.38
2023-04-08T02:14:31.188Z,3.23
2023-04-08T02:19:46.936Z,3.10
2023-04-08T02:24:53.135Z,2.90
2023-04-08T02:30:00.804Z,2.67
2023-04-08T02:35:09.448Z,2.38
2023-04-08T02:40:29.236Z,2.16
2023-04-08T02:45:38.397Z,2.04
2023-04-08T02:50:43.968Z,1.99
2023-04-08T02:55:49.603Z,1.96
2023-04-08T03:00:55.628Z,1.90
2023-04-08T03:06:01.304Z,1.82
2023-04-08T03:11:07.042Z,1.71
2023-04-08T03:16:12.724Z,1.56
2023-04-08T03:21:18.328Z,1.46
2023-04-08T03:26:23.965Z,1.40
2023-04-08T03:31:32.702Z,1.39
2023-04-08T03:36:38.469Z,1.45
2023-04-08T03:41:44.141Z,1.48
2023-04-08T03:46:50.061Z,1.49
2023-04-08T03:51:55.790Z,1.45
2023-04-08T03:57:01.402Z,1.23
2023-04-08T04:02:07.177Z,0.98
2023-04-08T04:07:12.814Z,0.80
2023-04-08T04:12:20.470Z,0.82
2023-04-08T04:17:26.208Z,0.94
2023-04-08T04:22:31.833Z,1.02
2023-04-08T04:27:37.573Z,1.09
2023-04-08T04:32:44.225Z,1.23
2023-04-08T04:37:52.001Z,1.46
2023-04-08T04:42:57.742Z,2.06
2023-04-08T04:48:08.245Z,2.36
2023-04-08T04:53:16.074Z,2.56
2023-04-08T04:58:23.729Z,3.91
2023-04-08T05:03:30.727Z,5.96
2023-04-08T05:08:36.662Z,6.91
2023-04-08T05:13:42.233Z,7.43
2023-04-08T05:18:47.977Z,8.07
2023-04-08T05:23:54.477Z,8.64
2023-04-08T05:28:59.978Z,9.02
2023-04-08T05:34:05.463Z,10.44
2023-04-08T05:39:10.952Z,12.71
2023-04-08T05:44:16.394Z,14.69
2023-04-08T05:49:22.121Z,16.88
2023-04-08T05:54:27.670Z,18.31
2023-04-08T05:59:33.467Z,19.46
2023-04-08T06:04:39.864Z,20.61
2023-04-08T06:09:45.656Z,21.03
2023-04-08T06:14:56.188Z,21.84
2023-04-08T06:20:07.873Z,22.45
2023-04-08T06:25:13.741Z,23.29
2023-04-08T06:30:19.349Z,23.57
2023-04-08T06:35:29.620Z,23.65
2023-04-08T06:40:35.442Z,24.28
2023-04-08T06:45:43.245Z,25.03
2023-04-08T06:50:48.805Z,25.38
2023-04-08T06:55:55.148Z,25.17
2023-04-08T07:01:03.501Z,25.18
2023-04-08T07:06:09.314Z,25.58
2023-04-08T07:11:15.819Z,26.50
2023-04-08T07:16:21.612Z,26.84
2023-04-08T07:21:31.994Z,27.59
2023-04-08T07:26:38.192Z,27.51
2023-04-08T07:31:44.888Z,27.93
2023-04-08T07:36:50.685Z,28.29
2023-04-08T07:41:56.674Z,29.07
2023-04-08T07:47:02.480Z,29.39
2023-04-08T07:52:08.474Z,28.62
2023-04-08T07:57:16.536Z,27.69
2023-04-08T08:02:22.149Z,27.53
2023-04-08T08:07:27.702Z,28.36
2023-04-08T08:12:34.650Z,29.12
2023-04-08T08:17:40.430Z,29.40
2023-04-08T08:22:56.814Z,29.81
2023-04-08T08:28:05.700Z,29.92
2023-04-08T08:33:11.528Z,29.43
2023-04-08T08:38:17.798Z,29.39
2023-04-08T08:43:24.288Z,29.70
2023-04-08T08:48:30.079Z,29.34
2023-04-08T08:53:38.048Z,30.12
2023-04-08T08:58:43.835Z,30.45
2023-04-08T09:04:08.846Z,30.25
2023-04-08T09:09:17.197Z,29.34
2023-04-08T09:14:25.766Z,29.85
2023-04-08T09:19:31.723Z,29.11
2023-04-08T09:24:38.165Z,29.10
2023-04-08T09:29:43.690Z,29.35
2023-04-08T09:34:53.861Z,28.40
2023-04-08T09:39:59.803Z,27.61
2023-04-08T09:45:07.701Z,27.89
2023-04-08T09:50:15.581Z,27.54
2023-04-08T09:55:24.087Z,27.66
2023-04-08T10:00:35.446Z,27.65
2023-04-08T10:05:43.768Z,27.06
2023-04-08T10:10:50.017Z,27.16
2023-04-08T10:16:27.482Z,26.67
2023-04-08T10:21:50.269Z,26.10
2023-04-08T10:26:59.208Z,25.85
2023-04-08T10:32:06.481Z,26.30
2023-04-08T10:37:12.339Z,26.75
2023-04-08T10:42:17.727Z,26.49
2023-04-08T10:47:30.191Z,25.70
2023-04-08T10:52:35.966Z,25.28
2023-04-08T10:57:41.657Z,25.69
2023-04-08T11:02:47.661Z,25.81
2023-04-08T11:07:54.855Z,25.99
2023-04-08T11:13:00.464Z,26.04
2023-04-08T11:18:07.358Z,25.71
2023-04-08T11:23:15.611Z,24.60
2023-04-08T11:28:22.263Z,24.05
2023-04-08T11:33:30.840Z,23.14
2023-04-08T11:38:41.608Z,22.41
2023-04-08T11:43:59.525Z,21.90
2023-04-08T11:49:10.005Z,21.26
2023-04-08T11:54:29.391Z,21.05
2023-04-08T11:59:34.866Z,20.33
2023-04-08T12:04:40.301Z,19.31
2023-04-08T12:09:45.958Z,18.93
2023-04-08T12:14:51.491Z,19.29
2023-04-08T12:19:57.306Z,19.56
2023-04-08T12:25:04.160Z,19.54
2023-04-08T12:30:12.261Z,20.03
2023-04-08T12:35:18.076Z,19.86
2023-04-08T12:40:23.627Z,20.11
2023-04-08T12:45:29.342Z,20.27
2023-04-08T12:50:42.701Z,20.19
2023-04-08T12:55:49.196Z,20.05
2023-04-08T13:00:55.679Z,19.68
2023-04-08T13:06:01.766Z,19.77
2023-04-08T13:11:09.395Z,19.82
2023-04-08T13:16:15.571Z,20.51
2023-04-08T13:21:24.816Z,20.62
2023-04-08T13:26:32.692Z,20.28
2023-04-08T13:31:48.946Z,19.72
2023-04-08T13:42:20.439Z,18.40
2023-04-08T13:47:32.372Z,17.82
2023-04-08T13:52:42.807Z,17.37
2023-04-08T13:57:48.450Z,17.13
2023-04-08T14:02:54.057Z,16.54
2023-04-08T14:08:02.602Z,16.22
2023-04-08T14:13:08.129Z,15.96
2023-04-08T14:18:23.382Z,15.80
2023-04-08T14:23:29.000Z,15.67
2023-04-08T14:28:34.873Z,15.71
2023-04-08T14:33:43.514Z,15.76
2023-04-08T14:38:54.735Z,15.51
2023-04-08T14:44:10.369Z,15.48
2023-04-08T14:49:26.000Z,15.45
2023-04-08T14:54:35.973Z,15.24
2023-04-08T14:59:42.046Z,14.99
2023-04-08T15:04:47.592Z,14.93
2023-04-08T15:09:54.433Z,15.00
2023-04-08T15:15:07.612Z,14.99
2023-04-08T15:20:14.527Z,14.93
2023-04-08T15:25:21.239Z,14.84
2023-04-08T15:30:27.759Z,14.74
2023-04-08T15:35:42.389Z,14.58
2023-04-08T15:40:48.291Z,14.42
2023-04-08T15:45:54.019Z,14.41
2023-04-08T15:51:08.364Z,14.42
2023-04-08T15:56:16.353Z,14.39
2023-04-08T16:01:22.429Z,14.39
2023-04-08T16:06:28.066Z,14.31
2023-04-08T16:11:35.954Z,14.22
2023-04-08T16:16:41.413Z,14.10
2023-04-08T16:21:47.036Z,14.04
2023-04-08T16:26:52.560Z,13.96
2023-04-08T16:31:58.052Z,13.79
2023-04-08T16:37:03.805Z,13.67
2023-04-08T16:42:09.607Z,13.57
2023-04-08T16:47:15.512Z,13.47
2023-04-08T16:52:21.555Z,13.32
2023-04-08T16:57:27.351Z,13.13
2023-04-08T17:02:32.932Z,12.93
2023-04-08T17:07:38.570Z,12.82
2023-04-08T17:12:44.296Z,12.67
2023-04-08T17:17:49.798Z,12.54
2023-04-08T17:22:56.121Z,12.36
2023-04-08T17:28:01.787Z,12.19
2023-04-08T17:33:07.488Z,12.05
2023-04-08T17:38:13.046Z,11.98
2023-04-08T17:43:18.485Z,11.89
2023-04-08T17:48:24.098Z,11.75
2023-04-08T17:53:29.824Z,11.49
2023-04-08T17:58:35.375Z,11.14
2023-04-08T18:03:41.043Z,10.74
2023-04-08T18:08:46.733Z,10.44
2023-04-08T18:13:52.590Z,10.21
2023-04-08T18:18:58.522Z,9.91
2023-04-08T18:24:04.237Z,9.66
2023-04-08T18:29:09.944Z,9.46
2023-04-08T18:34:15.495Z,9.34
2023-04-08T18:39:22.546Z,9.25
2023-04-08T18:44:28.698Z,9.20
2023-04-08T18:49:34.356Z,9.14
2023-04-08T18:54:40.115Z,9.12
2023-04-08T18:59:48.681Z,9.16
2023-04-08T19:04:55.707Z,9.24
2023-04-08T19:10:01.394Z,9.37
2023-04-08T19:15:08.440Z,9.36
2023-04-08T19:20:14.286Z,9.26
2023-04-08T19:25:20.707Z,9.21
2023-04-08T19:30:26.487Z,9.20
2023-04-08T19:35:32.167Z,9.18
2023-04-08T19:40:37.970Z,9.13
2023-04-08T19:45:44.277Z,9.14
2023-04-08T19:50:51.053Z,9.15
2023-04-08T19:56:01.793Z,9.15
2023-04-08T20:01:09.978Z,9.14
2023-04-08T20:06:15.336Z,9.12
2023-04-08T20:11:21.039Z,9.14
2023-04-08T20:16:26.896Z,9.19
2023-04-08T20:21:32.649Z,9.18
2023-04-08T20:26:38.239Z,9.18
2023-04-08T20:31:44.789Z,9.19
2023-04-08T20:36:50.929Z,9.17
2023-04-08T20:41:58.227Z,9.14
2023-04-08T20:47:04.099Z,9.07
2023-04-08T20:52:09.795Z,9.02
2023-04-08T20:57:15.503Z,8.99
2023-04-08T21:02:21.690Z,8.95
2023-04-08T21:07:27.401Z,8.93
2023-04-08T21:12:32.894Z,8.95
2023-04-08T21:17:38.411Z,8.96
2023-04-08T21:22:43.829Z,8.93
2023-04-08T21:27:49.993Z,8.92
2023-04-08T21:32:55.374Z,8.92
2023-04-08T21:38:01.326Z,8.89
2023-04-08T21:43:13.120Z,8.83
2023-04-08T21:48:21.260Z,8.85
2023-04-08T21:53:26.953Z,8.84
2023-04-08T21:58:32.474Z,8.84
2023-04-08T22:03:37.915Z,8.80
2023-04-08T22:08:43.601Z,8.81
2023-04-08T22:13:55.425Z,8.80
2023-04-08T22:19:01.098Z,8.81
2023-04-08T22:24:07.363Z,8.82
2023-04-08T22:29:12.938Z,8.82
2023-04-08T22:34:18.514Z,8.83
2023-04-08T22:39:26.065Z,8.82
2023-04-08T22:44:31.534Z,8.81
2023-04-08T22:49:36.926Z,8.78
2023-04-08T22:54:42.310Z,8.78
2023-04-08T22:59:47.911Z,8.74
2023-04-08T23:04:56.094Z,8.68
2023-04-08T23:10:01.433Z,8.66
2023-04-08T23:15:08.358Z,8.64
2023-04-08T23:20:14.304Z,8.61
2023-04-08T23:25:20.317Z,8.57
2023-04-08T23:30:25.768Z,8.63
2023-04-08T23:35:31.563Z,8.69
2023-04-08T23:40:37.181Z,8.73
2023-04-08T23:45:42.715Z,8.73
2023-04-08T23:50:52.070Z,8.72
2023-04-08T23:56:05.618Z,8.71
